Estrela do Norte, Brazil
Current Conditions -  °F | °C
As of 9:00 AM on Saturday 25 Oct 2014 (Local Time) from SBDN Reporting Station
Overcast Overcast  
Wind Chill: 72°   Ceiling: 10000
Heat Index: 72°   Visibility: 6mi
Dew Point: 66°   Wind: 7mph
Humidity: 83%   Direction: 50°NE
Pressure: 29.97"   Gusts: NA
Location:  22.49°S, 51.66°W
Report Text: SBDN 251100Z 05006KT 9999 SCT048 OVC100 22/19 Q1015
Loading
Personal Weather Stations






























Interactive Weather Map
Tropical Storm Tracking
New forecast layout! Learn more

10-Day Weather Forecast

Advertisements
Track Severe Weather on mobile